地図

経路データ

SID SEASON NUMBER BASIN SUBBASIN NAME ISO_TIME NATURE LAT LON WMO_WIND WMO_PRES WMO_AGENCY TRACK_TYPE DIST2LAND LANDFALL IFLAG USA_AGENCY USA_ATCF_ID USA_LAT USA_LON USA_RECORD USA_STATUS USA_WIND USA_PRES USA_SSHS USA_R34_NE USA_R34_SE USA_R34_SW USA_R34_NW USA_R50_NE USA_R50_SE USA_R50_SW USA_R50_NW USA_R64_NE USA_R64_SE USA_R64_SW USA_R64_NW USA_POCI USA_ROCI USA_RMW USA_EYE TOKYO_LAT TOKYO_LON TOKYO_GRADE TOKYO_WIND TOKYO_PRES TOKYO_R50_DIR TOKYO_R50_LONG TOKYO_R50_SHORT TOKYO_R30_DIR TOKYO_R30_LONG TOKYO_R30_SHORT TOKYO_LAND CMA_LAT CMA_LON CMA_CAT CMA_WIND CMA_PRES HKO_LAT HKO_LON HKO_CAT HKO_WIND HKO_PRES NEWDELHI_LAT NEWDELHI_LON NEWDELHI_GRADE NEWDELHI_WIND NEWDELHI_PRES NEWDELHI_CI NEWDELHI_DP NEWDELHI_POCI REUNION_LAT REUNION_LON REUNION_TYPE REUNION_WIND REUNION_PRES REUNION_TNUM REUNION_CI REUNION_RMW REUNION_R34_NE REUNION_R34_SE REUNION_R34_SW REUNION_R34_NW REUNION_R50_NE REUNION_R50_SE REUNION_R50_SW REUNION_R50_NW REUNION_R64_NE REUNION_R64_SE REUNION_R64_SW REUNION_R64_NW BOM_LAT BOM_LON BOM_TYPE BOM_WIND BOM_PRES BOM_TNUM BOM_CI BOM_RMW BOM_R34_NE BOM_R34_SE BOM_R34_SW BOM_R34_NW BOM_R50_NE BOM_R50_SE BOM_R50_SW BOM_R50_NW BOM_R64_NE BOM_R64_SE BOM_R64_SW BOM_R64_NW BOM_ROCI BOM_POCI BOM_EYE BOM_POS_METHOD BOM_PRES_METHOD NADI_LAT NADI_LON NADI_CAT NADI_WIND NADI_PRES WELLINGTON_LAT WELLINGTON_LON WELLINGTON_WIND WELLINGTON_PRES DS824_LAT DS824_LON DS824_STAGE DS824_WIND DS824_PRES TD9636_LAT TD9636_LON TD9636_STAGE TD9636_WIND TD9636_PRES TD9635_LAT TD9635_LON TD9635_WIND TD9635_PRES TD9635_ROCI NEUMANN_LAT NEUMANN_LON NEUMANN_CLASS NEUMANN_WIND NEUMANN_PRES MLC_LAT MLC_LON MLC_CLASS MLC_WIND MLC_PRES USA_GUST BOM_GUST BOM_GUST_PER REUNION_GUST REUNION_GUST_PER USA_SEAHGT USA_SEARAD_NE USA_SEARAD_SE USA_SEARAD_SW USA_SEARAD_NW STORM_SPEED STORM_DIR
1995206N13252 1995 34 EP MM DALILA 1995-07-24 12:00:00 TS 13.1000 -108.300 25 1007 hurdat_epa main 776 767 O_____________ hurdat_epa EP051995 13.1000 -108.300 TD 25 1007 -1 2 30
1995206N13252 1995 34 EP MM DALILA 1995-07-24 15:00:00 TS 13.2025 -108.250 main 767 752 P_____________ EP051995 13.2025 -108.250 TD 25 1006 -1 2 27
1995206N13252 1995 34 EP MM DALILA 1995-07-24 18:00:00 TS 13.3000 -108.200 25 1006 hurdat_epa main 752 743 O_____________ hurdat_epa EP051995 13.3000 -108.200 TD 25 1006 -1 2 27
1995206N13252 1995 34 EP MM DALILA 1995-07-24 21:00:00 TS 13.3925 -108.150 main 736 728 P_____________ EP051995 13.3925 -108.150 TD 27 1005 -1 2 27
1995206N13252 1995 34 EP MM DALILA 1995-07-25 00:00:00 TS 13.5000 -108.100 30 1005 hurdat_epa main 728 712 O_____________ hurdat_epa EP051995 13.5000 -108.100 TD 30 1005 -1 3 22
1995206N13252 1995 34 EP MM DALILA 1995-07-25 03:00:00 TS 13.6500 -108.043 main 703 693 P_____________ EP051995 13.6500 -108.043 TD 32 1004 -1 3 17
1995206N13252 1995 34 EP MM DALILA 1995-07-25 06:00:00 TS 13.8000 -108.000 35 1004 hurdat_epa main 693 684 O_____________ hurdat_epa EP051995 13.8000 -108.000 TS 35 1004 0 3 13
1995206N13252 1995 34 EP MM DALILA 1995-07-25 09:00:00 TS 13.9000 -107.985 main 684 674 P_____________ EP051995 13.9000 -107.985 TS 35 1003 0 2 8
1995206N13252 1995 34 EP MM DALILA 1995-07-25 12:00:00 TS 14.0000 -108.000 35 1003 hurdat_epa main 674 664 O_____________ hurdat_epa EP051995 14.0000 -108.000 TS 35 1003 0 2 346
1995206N13252 1995 34 EP MM DALILA 1995-07-25 15:00:00 TS 14.1425 -108.035 main 664 651 P_____________ EP051995 14.1425 -108.035 TS 35 1003 0 3 343
1995206N13252 1995 34 EP MM DALILA 1995-07-25 18:00:00 TS 14.3000 -108.100 35 1003 hurdat_epa main 651 641 O_____________ hurdat_epa EP051995 14.3000 -108.100 TS 35 1003 0 3 335
1995206N13252 1995 34 EP MM DALILA 1995-07-25 21:00:00 TS 14.4500 -108.185 main 647 635 P_____________ EP051995 14.4500 -108.185 TS 35 1002 0 4 327
1995206N13252 1995 34 EP MM DALILA 1995-07-26 00:00:00 TS 14.6000 -108.300 35 1002 hurdat_epa main 635 623 O_____________ hurdat_epa EP051995 14.6000 -108.300 TS 35 1002 0 4 321
1995206N13252 1995 34 EP MM DALILA 1995-07-26 03:00:00 TS 14.7650 -108.450 main 623 621 P_____________ EP051995 14.7650 -108.450 TS 35 1002 0 4 316
1995206N13252 1995 34 EP MM DALILA 1995-07-26 06:00:00 TS 14.9000 -108.600 35 1002 hurdat_epa main 628 626 O_____________ hurdat_epa EP051995 14.9000 -108.600 TS 35 1002 0 3 308
1995206N13252 1995 34 EP MM DALILA 1995-07-26 09:00:00 TS 14.9650 -108.708 main 626 626 P_____________ EP051995 14.9650 -108.708 TS 35 1002 0 2 297
1995206N13252 1995 34 EP MM DALILA 1995-07-26 12:00:00 TS 15.0000 -108.800 35 1002 hurdat_epa main 633 633 O_____________ hurdat_epa EP051995 15.0000 -108.800 TS 35 1002 0 2 294
1995206N13252 1995 34 EP MM DALILA 1995-07-26 15:00:00 TS 15.0500 -108.900 main 632 632 P_____________ EP051995 15.0500 -108.900 TS 35 1002 0 2 297
1995206N13252 1995 34 EP MM DALILA 1995-07-26 18:00:00 TS 15.1000 -109.000 35 1002 hurdat_epa main 640 640 O_____________ hurdat_epa EP051995 15.1000 -109.000 TS 35 1002 0 2 297
1995206N13252 1995 34 EP MM DALILA 1995-07-26 21:00:00 TS 15.1425 -109.093 main 647 639 P_____________ EP051995 15.1425 -109.093 TS 35 1002 0 2 297
1995206N13252 1995 34 EP MM DALILA 1995-07-27 00:00:00 TS 15.2000 -109.200 35 1002 hurdat_epa main 647 646 O_____________ hurdat_epa EP051995 15.2000 -109.200 TS 35 1002 0 3 305
1995206N13252 1995 34 EP MM DALILA 1995-07-27 03:00:00 TS 15.2999 -109.320 main 646 646 P_____________ EP051995 15.2999 -109.320 TS 35 1002 0 4 305
1995206N13252 1995 34 EP MM DALILA 1995-07-27 06:00:00 TS 15.4000 -109.500 35 1002 hurdat_epa main 654 654 O_____________ hurdat_epa EP051995 15.4000 -109.500 TS 35 1002 0 4 292
1995206N13252 1995 34 EP MM DALILA 1995-07-27 09:00:00 TS 15.4573 -109.733 main 662 662 P_____________ EP051995 15.4573 -109.733 TS 35 1001 0 6 280
1995206N13252 1995 34 EP MM DALILA 1995-07-27 12:00:00 TS 15.5000 -110.100 35 1001 hurdat_epa main 692 692 O_____________ hurdat_epa EP051995 15.5000 -110.100 TS 35 1001 0 9 276
1995206N13252 1995 34 EP MM DALILA 1995-07-27 15:00:00 TS 15.5501 -110.655 main 733 733 P_____________ EP051995 15.5501 -110.655 TS 35 1001 0 12 275
1995206N13252 1995 34 EP MM DALILA 1995-07-27 18:00:00 TS 15.6000 -111.300 35 1001 hurdat_epa main 783 783 O_____________ hurdat_epa EP051995 15.6000 -111.300 TS 35 1001 0 12 275
1995206N13252 1995 34 EP MM DALILA 1995-07-27 21:00:00 TS 15.6498 -111.893 main 836 829 P_____________ EP051995 15.6497 -111.885 TS 37 1000 0 12 275
1995206N13252 1995 34 EP MM DALILA 1995-07-28 00:00:00 TS 15.7000 -112.500 40 1000 hurdat_epa main 846 846 O_____________ hurdat_epa EP051995 15.7000 -112.500 TS 40 1000 0 12 274
1995206N13252 1995 34 EP MM DALILA 1995-07-28 03:00:00 TS 15.7426 -113.173 main 872 866 P_____________ EP051995 15.7428 -113.230 TS 42 999 0 13 275
1995206N13252 1995 34 EP MM DALILA 1995-07-28 06:00:00 TS 15.8000 -113.800 45 999 hurdat_epa main 888 888 O_____________ hurdat_epa EP051995 15.8000 -113.900 TS 45 999 0 11 278
1995206N13252 1995 34 EP MM DALILA 1995-07-28 09:00:00 TS 15.8920 -114.258 main 903 903 P_____________ EP051995 15.8919 -114.315 TS 47 998 0 9 283
1995206N13252 1995 34 EP MM DALILA 1995-07-28 12:00:00 TS 16.0000 -114.700 50 997 hurdat_epa main 915 915 O_____________ hurdat_epa EP051995 16.0000 -114.700 TS 50 997 0 10 282
1995206N13252 1995 34 EP MM DALILA 1995-07-28 15:00:00 TS 16.1001 -115.285 main 941 941 P_____________ EP051995 16.1001 -115.278 TS 52 996 0 12 280
1995206N13252 1995 34 EP MM DALILA 1995-07-28 18:00:00 TS 16.2000 -115.900 55 995 hurdat_epa main 971 971 O_____________ hurdat_epa EP051995 16.2000 -115.900 TS 55 995 0 12 280
1995206N13252 1995 34 EP MM DALILA 1995-07-28 21:00:00 TS 16.2924 -116.465 main 1003 1003 P_____________ EP051995 16.2924 -116.465 TS 55 994 0 11 281
1995206N13252 1995 34 EP MM DALILA 1995-07-29 00:00:00 TS 16.4000 -117.000 55 994 hurdat_epa main 1032 1032 O_____________ hurdat_epa EP051995 16.4000 -117.000 TS 55 994 0 10 284
1995206N13252 1995 34 EP MM DALILA 1995-07-29 03:00:00 TS 16.5424 -117.515 main 1062 1054 P_____________ EP051995 16.5424 -117.515 TS 52 995 0 10 287
1995206N13252 1995 34 EP MM DALILA 1995-07-29 06:00:00 TS 16.7000 -118.000 50 996 hurdat_epa main 1084 1084 O_____________ hurdat_epa EP051995 16.7000 -118.000 TS 50 996 0 10 289
1995206N13252 1995 34 EP MM DALILA 1995-07-29 09:00:00 TS 16.8499 -118.458 main 1105 1096 P_____________ EP051995 16.8499 -118.458 TS 50 997 0 9 289
1995206N13252 1995 34 EP MM DALILA 1995-07-29 12:00:00 TS 17.0000 -118.900 50 998 hurdat_epa main 1113 1113 O_____________ hurdat_epa EP051995 17.0000 -118.900 TS 50 998 0 9 289
1995206N13252 1995 34 EP MM DALILA 1995-07-29 15:00:00 TS 17.1424 -119.358 main 1138 1129 P_____________ EP051995 17.1424 -119.358 TS 47 998 0 9 289
1995206N13252 1995 34 EP MM DALILA 1995-07-29 18:00:00 TS 17.3000 -119.800 45 999 hurdat_epa main 1149 1148 O_____________ hurdat_epa EP051995 17.3000 -119.800 TS 45 999 0 9 293
1995206N13252 1995 34 EP MM DALILA 1995-07-29 21:00:00 TS 17.4925 -120.223 main 1162 1162 P_____________ EP051995 17.4925 -120.223 TS 45 999 0 9 298
1995206N13252 1995 34 EP MM DALILA 1995-07-30 00:00:00 TS 17.7000 -120.600 45 1000 hurdat_epa main 1177 1177 O_____________ hurdat_epa EP051995 17.7000 -120.600 TS 45 1000 0 8 301
1995206N13252 1995 34 EP MM DALILA 1995-07-30 03:00:00 TS 17.8848 -120.908 main 1185 1185 P_____________ EP051995 17.8848 -120.908 TS 45 1000 0 7 305
1995206N13252 1995 34 EP MM DALILA 1995-07-30 06:00:00 TS 18.1000 -121.200 45 1001 hurdat_epa main 1194 1194 O_____________ hurdat_epa EP051995 18.1000 -121.200 TS 45 1001 0 8 309
1995206N13252 1995 34 EP MM DALILA 1995-07-30 09:00:00 TS 18.3926 -121.565 main 1205 1199 P_____________ EP051995 18.3926 -121.565 TS 42 1004 0 9 312
1995206N13252 1995 34 EP MM DALILA 1995-07-30 12:00:00 TS 18.7000 -121.900 40 1007 hurdat_epa main 1210 1206 O_____________ hurdat_epa EP051995 18.7000 -121.900 TS 40 1007 0 8 317
1995206N13252 1995 34 EP MM DALILA 1995-07-30 15:00:00 TS 18.9724 -122.138 main 1207 1203 P_____________ EP051995 18.9724 -122.138 TS 40 1005 0 6 323
1995206N13252 1995 34 EP MM DALILA 1995-07-30 18:00:00 TS 19.2000 -122.300 40 1003 hurdat_epa main 1203 1193 O_____________ hurdat_epa EP051995 19.2000 -122.300 TS 40 1003 0 5 327
1995206N13252 1995 34 EP MM DALILA 1995-07-30 21:00:00 TS 19.3800 -122.415 main 1193 1192 P_____________ EP051995 19.3800 -122.415 TS 40 1003 0 4 328
1995206N13252 1995 34 EP MM DALILA 1995-07-31 00:00:00 TS 19.5000 -122.500 40 1004 hurdat_epa main 1192 1190 O_____________ hurdat_epa EP051995 19.5000 -122.500 TS 40 1004 0 3 317
1995206N13252 1995 34 EP MM DALILA 1995-07-31 03:00:00 TS 19.5650 -122.600 main 1190 1190 P_____________ EP051995 19.5650 -122.600 TS 37 1004 0 2 298
1995206N13252 1995 34 EP MM DALILA 1995-07-31 06:00:00 TS 19.6000 -122.700 35 1005 hurdat_epa main 1196 1196 O_____________ hurdat_epa EP051995 19.6000 -122.700 TS 35 1005 0 2 295
1995206N13252 1995 34 EP MM DALILA 1995-07-31 09:00:00 TS 19.6500 -122.793 main 1203 1194 P_____________ EP051995 19.6500 -122.793 TS 35 1005 0 2 298
1995206N13252 1995 34 EP MM DALILA 1995-07-31 12:00:00 TS 19.7000 -122.900 35 1005 hurdat_epa main 1201 1201 O_____________ hurdat_epa EP051995 19.7000 -122.900 TS 35 1005 0 3 292
1995206N13252 1995 34 EP MM DALILA 1995-07-31 15:00:00 TS 19.7425 -123.043 main 1208 1206 P_____________ EP051995 19.7425 -123.043 TS 35 1005 0 3 290
1995206N13252 1995 34 EP MM DALILA 1995-07-31 18:00:00 TS 19.8000 -123.200 35 1006 hurdat_epa main 1213 1212 O_____________ hurdat_epa EP051995 19.8000 -123.200 TS 35 1006 0 3 297
1995206N13252 1995 34 EP MM DALILA 1995-07-31 21:00:00 TS 19.8850 -123.343 main 1212 1211 P_____________ EP051995 19.8850 -123.343 TS 32 1006 -1 3 305
1995206N13252 1995 34 EP MM DALILA 1995-08-01 00:00:00 TS 20.0000 -123.500 30 1006 hurdat_epa main 1218 1217 O_____________ hurdat_epa EP051995 20.0000 -123.500 TD 30 1006 -1 4 309
1995206N13252 1995 34 EP MM DALILA 1995-08-01 03:00:00 TS 20.1349 -123.670 main 1225 1216 P_____________ EP051995 20.1349 -123.670 TD 30 1006 -1 5 309
1995206N13252 1995 34 EP MM DALILA 1995-08-01 06:00:00 TS 20.3000 -123.900 30 1006 hurdat_epa main 1224 1223 O_____________ hurdat_epa EP051995 20.3000 -123.900 TD 30 1006 -1 6 305
1995206N13252 1995 34 EP MM DALILA 1995-08-01 09:00:00 TS 20.4925 -124.220 main 1231 1231 P_____________ EP051995 20.4925 -124.220 TD 30 1006 -1 8 301
1995206N13252 1995 34 EP MM DALILA 1995-08-01 12:00:00 TS 20.7000 -124.600 30 1007 hurdat_epa main 1247 1247 O_____________ hurdat_epa EP051995 20.7000 -124.600 TD 30 1007 -1 8 301
1995206N13252 1995 34 EP MM DALILA 1995-08-01 15:00:00 TS 20.9224 -124.985 main 1265 1265 P_____________ EP051995 20.9224 -124.985 TD 27 1007 -1 8 298
1995206N13252 1995 34 EP MM DALILA 1995-08-01 18:00:00 TS 21.1000 -125.400 25 1007 hurdat_epa main 1284 1284 O_____________ hurdat_epa EP051995 21.1000 -125.400 TD 25 1007 -1 9 290
1995206N13252 1995 34 EP MM DALILA 1995-08-01 21:00:00 TS 21.2175 -125.850 main 1310 1310 P_____________ EP051995 21.2175 -125.850 TD 25 1007 -1 8 277
1995206N13252 1995 34 EP MM DALILA 1995-08-02 00:00:00 TS 21.2000 -126.300 25 1007 hurdat_epa main 1353 1353 O_____________ hurdat_epa EP051995 21.2000 -126.300 TD 25 1007 -1 8 255
1995206N13252 1995 34 EP MM DALILA 1995-08-02 03:00:00 TS 21.0026 -126.713 main 1400 1400 P_____________ EP051995 21.0026 -126.713 TD 22 1007 -1 9 236
1995206N13252 1995 34 EP MM DALILA 1995-08-02 06:00:00 TS 20.7000 -127.100 20 1008 hurdat_epa main 1453 O_____________ hurdat_epa EP051995 20.7000 -127.100 TD 20 1008 -1 9 230

IBTrACS Databaseについて

本データベースは、米国NOAAが公開する1842年以降の世界の熱帯低気圧のベストトラックデータアーカイブInternational Best Track Archive for Climate Stewardship (IBTrACS)を、ウェブで閲覧しやすい形式に変換したものです。

最終更新日:2021-10-21